createdAt,value
2018-06-05T00:00:28.399Z,89.70
2018-06-05T00:02:56.594Z,89.90
2018-06-05T00:05:24.798Z,90.00
2018-06-05T00:07:53.077Z,90.20
2018-06-05T00:10:21.300Z,90.20
2018-06-05T00:12:49.557Z,90.20
2018-06-05T00:15:17.797Z,90.30
2018-06-05T00:17:46.054Z,90.30
2018-06-05T00:20:14.308Z,90.20
2018-06-05T00:22:42.520Z,90.20
2018-06-05T00:25:10.708Z,90.20
2018-06-05T00:27:38.982Z,90.20
2018-06-05T00:30:07.210Z,90.30
2018-06-05T00:32:35.403Z,90.50
2018-06-05T00:35:03.634Z,90.60
2018-06-05T00:37:31.839Z,90.70
2018-06-05T00:40:00.099Z,90.80
2018-06-05T00:42:28.312Z,90.80
2018-06-05T00:44:56.519Z,90.70
2018-06-05T00:47:24.761Z,90.70
2018-06-05T00:49:52.992Z,90.70
2018-06-05T00:52:21.224Z,90.80
2018-06-05T00:54:49.465Z,90.90
2018-06-05T00:57:17.671Z,91.00
2018-06-05T00:59:45.927Z,91.10
2018-06-05T01:02:14.167Z,91.10
2018-06-05T01:04:42.387Z,91.20
2018-06-05T01:07:10.599Z,91.20
2018-06-05T01:09:39.348Z,91.30
2018-06-05T01:12:07.668Z,91.30
2018-06-05T01:14:35.871Z,91.40
2018-06-05T01:17:04.096Z,91.40
2018-06-05T01:19:32.332Z,91.40
2018-06-05T01:22:00.600Z,91.50
2018-06-05T01:24:28.817Z,91.50
2018-06-05T01:26:57.990Z,91.60
2018-06-05T01:29:26.227Z,91.60
2018-06-05T01:31:54.427Z,91.60
2018-06-05T01:34:22.676Z,91.60
2018-06-05T01:36:50.911Z,91.60
2018-06-05T01:39:19.112Z,91.60
2018-06-05T01:41:47.344Z,91.60
2018-06-05T01:44:16.156Z,91.60
2018-06-05T01:46:44.385Z,91.60
2018-06-05T01:49:12.708Z,91.60
2018-06-05T01:51:40.981Z,91.70
2018-06-05T01:54:09.181Z,91.90
2018-06-05T01:56:37.404Z,91.90
2018-06-05T01:59:05.645Z,91.90
2018-06-05T02:01:33.840Z,91.90
2018-06-05T02:04:02.082Z,92.00
2018-06-05T02:06:30.340Z,92.00
2018-06-05T02:08:58.542Z,92.00
2018-06-05T02:11:26.771Z,92.00
2018-06-05T02:13:54.992Z,92.10
2018-06-05T02:16:23.200Z,92.10
2018-06-05T02:18:51.440Z,92.10
2018-06-05T02:21:20.518Z,92.10
2018-06-05T02:23:48.739Z,92.20
2018-06-05T02:26:16.985Z,92.10
2018-06-05T02:31:13.172Z,92.10
2018-06-05T02:41:05.309Z,92.20
2018-06-05T02:43:33.588Z,92.20
2018-06-05T02:46:02.792Z,92.30
2018-06-05T02:48:30.997Z,92.30
2018-06-05T02:50:59.216Z,92.30
2018-06-05T02:53:27.413Z,92.30
2018-06-05T02:55:55.656Z,92.30
2018-06-05T02:58:23.850Z,92.30
2018-06-05T03:00:52.068Z,92.30
2018-06-05T03:03:20.292Z,92.40
2018-06-05T03:05:48.812Z,92.40
2018-06-05T03:08:17.816Z,92.50
2018-06-05T03:10:46.036Z,92.50
2018-06-05T03:13:14.336Z,92.60
2018-06-05T03:15:42.564Z,92.60
2018-06-05T03:18:10.796Z,92.60
2018-06-05T03:20:39.064Z,92.70
2018-06-05T03:23:07.268Z,92.70
2018-06-05T03:25:35.491Z,92.80
2018-06-05T03:28:03.707Z,92.80
2018-06-05T03:30:31.926Z,92.80
2018-06-05T03:33:00.143Z,92.80
2018-06-05T03:35:28.456Z,92.80
2018-06-05T03:37:56.683Z,92.80
2018-06-05T03:40:24.930Z,92.90
2018-06-05T03:42:53.633Z,93.00
2018-06-05T03:47:49.893Z,93.00
2018-06-05T03:50:18.084Z,93.00
2018-06-05T03:52:46.340Z,93.00
2018-06-05T03:55:14.577Z,93.00
2018-06-05T03:57:42.812Z,93.00
2018-06-05T04:00:11.097Z,93.00
2018-06-05T04:02:39.359Z,93.00
2018-06-05T04:05:07.583Z,93.00
2018-06-05T04:07:35.820Z,93.00
2018-06-05T04:10:04.086Z,93.00
2018-06-05T04:12:32.280Z,92.90
2018-06-05T04:15:00.528Z,92.80
2018-06-05T04:17:28.804Z,92.80
2018-06-05T04:19:57.063Z,92.70
2018-06-05T04:27:21.266Z,92.60
2018-06-05T04:29:49.487Z,92.50
2018-06-05T04:32:17.732Z,92.40
2018-06-05T04:34:46.087Z,92.30
2018-06-05T04:37:14.325Z,92.20
2018-06-05T04:39:42.825Z,92.10
2018-06-05T04:42:11.064Z,92.00
2018-06-05T04:44:39.280Z,91.90
2018-06-05T04:47:07.640Z,91.80
2018-06-05T04:49:35.940Z,91.60
2018-06-05T04:52:04.185Z,91.50
2018-06-05T04:54:32.418Z,91.40
2018-06-05T04:57:00.737Z,91.20
2018-06-05T04:59:29.012Z,91.00
2018-06-05T05:01:57.220Z,90.80
2018-06-05T05:04:25.452Z,90.70
2018-06-05T05:06:53.674Z,90.50
2018-06-05T05:09:21.912Z,90.20
2018-06-05T05:11:50.096Z,89.90
2018-06-05T05:14:18.331Z,89.30
2018-06-05T05:16:46.544Z,88.60
2018-06-05T05:19:14.771Z,87.90
2018-06-05T05:21:42.988Z,87.40
2018-06-05T05:24:11.200Z,87.10
2018-06-05T05:26:39.440Z,86.70
2018-06-05T05:29:07.680Z,86.40
2018-06-05T05:31:35.905Z,86.40
2018-06-05T05:34:04.133Z,86.30
2018-06-05T05:36:33.016Z,86.20
2018-06-05T05:39:01.341Z,85.90
2018-06-05T05:41:29.596Z,85.70
2018-06-05T05:43:57.811Z,85.40
2018-06-05T05:46:26.072Z,84.80
2018-06-05T05:48:54.265Z,84.20
2018-06-05T05:51:22.507Z,83.70
2018-06-05T05:53:50.700Z,83.30
2018-06-05T05:56:19.029Z,82.80
2018-06-05T05:58:47.253Z,82.40
2018-06-05T06:01:15.474Z,82.40
2018-06-05T06:03:43.725Z,82.20
2018-06-05T06:06:11.908Z,82.00
2018-06-05T06:08:40.156Z,81.30
2018-06-05T06:11:08.391Z,80.80
2018-06-05T06:13:36.596Z,80.60
2018-06-05T06:16:04.924Z,80.50
2018-06-05T06:18:33.136Z,80.20
2018-06-05T06:21:01.380Z,80.30
2018-06-05T06:23:29.583Z,80.30
2018-06-05T06:25:57.801Z,80.00
2018-06-05T06:28:26.065Z,79.80
2018-06-05T06:30:54.252Z,79.70
2018-06-05T06:33:22.483Z,79.50
2018-06-05T06:35:50.724Z,79.30
2018-06-05T06:38:19.825Z,78.70
2018-06-05T06:40:48.856Z,78.30
2018-06-05T06:43:17.091Z,78.00
2018-06-05T06:45:45.323Z,77.50
2018-06-05T06:48:13.636Z,77.50
2018-06-05T06:50:41.836Z,76.80
2018-06-05T06:53:10.031Z,76.50
2018-06-05T06:55:38.281Z,76.60
2018-06-05T06:58:06.496Z,75.20
2018-06-05T07:00:34.973Z,74.60
2018-06-05T07:03:03.207Z,74.50
2018-06-05T07:05:31.424Z,73.80
2018-06-05T07:07:59.635Z,73.50
2018-06-05T07:10:27.903Z,73.40
2018-06-05T07:12:56.112Z,73.70
2018-06-05T07:15:24.332Z,73.30
2018-06-05T07:17:52.580Z,73.40
2018-06-05T07:20:20.808Z,72.80
2018-06-05T07:22:49.044Z,72.70
2018-06-05T07:25:17.340Z,72.60
2018-06-05T07:27:45.566Z,72.30
2018-06-05T07:30:13.818Z,71.90
2018-06-05T07:32:42.117Z,71.50
2018-06-05T07:35:10.317Z,71.00
2018-06-05T07:37:38.512Z,70.80
2018-06-05T07:40:06.748Z,70.50
2018-06-05T07:42:34.965Z,70.30
2018-06-05T07:45:03.183Z,70.00
2018-06-05T07:47:31.438Z,69.20
2018-06-05T07:49:59.679Z,67.70
2018-06-05T07:52:27.860Z,66.80
2018-06-05T07:54:56.079Z,66.20
2018-06-05T07:57:24.304Z,64.50
2018-06-05T07:59:52.569Z,63.70
2018-06-05T08:02:20.755Z,63.40
2018-06-05T08:04:49.009Z,61.70
2018-06-05T08:07:17.204Z,61.40
2018-06-05T08:09:45.395Z,61.40
2018-06-05T08:12:13.862Z,61.30
2018-06-05T08:14:42.093Z,61.10
2018-06-05T08:17:10.304Z,61.00
2018-06-05T08:19:38.521Z,60.60
2018-06-05T08:22:06.844Z,60.10
2018-06-05T08:24:35.186Z,59.60
2018-06-05T08:27:03.371Z,59.10
2018-06-05T08:29:31.609Z,58.70
2018-06-05T08:31:59.864Z,57.80
2018-06-05T08:34:28.064Z,57.20
2018-06-05T08:36:56.277Z,56.20
2018-06-05T08:39:24.592Z,56.60
2018-06-05T08:41:52.898Z,56.60
2018-06-05T08:44:21.118Z,57.10
2018-06-05T08:46:49.333Z,56.80
2018-06-05T08:49:18.172Z,55.80
2018-06-05T08:51:46.400Z,55.60
2018-06-05T08:54:14.611Z,55.30
2018-06-05T08:56:42.849Z,55.10
2018-06-05T09:01:39.024Z,54.70
2018-06-05T09:04:07.380Z,54.80
2018-06-05T09:06:35.617Z,55.20
2018-06-05T09:09:05.894Z,56.60
2018-06-05T09:11:34.117Z,55.90
2018-06-05T09:14:02.356Z,56.20
2018-06-05T09:16:30.592Z,55.90
2018-06-05T09:18:58.921Z,56.00
2018-06-05T09:21:27.147Z,56.20
2018-06-05T09:23:55.361Z,56.10
2018-06-05T09:26:24.540Z,55.00
2018-06-05T09:28:52.749Z,54.80
2018-06-05T09:31:20.961Z,54.60
2018-06-05T09:33:49.192Z,54.50
2018-06-05T09:36:17.458Z,54.20
2018-06-05T09:38:45.662Z,53.90
2018-06-05T09:41:13.876Z,53.80
2018-06-05T09:43:42.089Z,53.70
2018-06-05T09:46:10.348Z,53.40
2018-06-05T09:48:38.556Z,52.90
2018-06-05T09:51:07.229Z,53.30
2018-06-05T09:56:03.457Z,53.20
2018-06-05T09:58:31.694Z,52.90
2018-06-05T10:00:59.873Z,52.00
2018-06-05T10:03:28.118Z,52.00
2018-06-05T10:05:56.321Z,51.50
2018-06-05T10:08:24.513Z,51.50
2018-06-05T10:10:52.735Z,51.60
2018-06-05T10:13:20.960Z,51.50
2018-06-05T10:15:49.172Z,51.70
2018-06-05T10:18:17.403Z,51.60
2018-06-05T10:20:45.631Z,51.20
2018-06-05T10:23:13.812Z,51.10
2018-06-05T10:25:42.057Z,51.20
2018-06-05T10:28:10.277Z,51.30
2018-06-05T10:30:38.497Z,50.90
2018-06-05T10:33:06.700Z,50.70
2018-06-05T10:38:02.888Z,50.70
2018-06-05T10:40:31.136Z,50.40
2018-06-05T10:42:59.367Z,50.40
2018-06-05T10:45:27.578Z,51.00
2018-06-05T10:47:55.780Z,50.70
2018-06-05T10:50:23.991Z,50.30
2018-06-05T10:52:52.245Z,50.40
2018-06-05T10:55:20.461Z,50.30
2018-06-05T10:57:48.711Z,50.50
2018-06-05T11:00:16.922Z,50.70
2018-06-05T11:02:45.149Z,50.90
2018-06-05T11:05:13.402Z,51.50
2018-06-05T11:07:41.606Z,51.10
2018-06-05T11:10:09.904Z,50.60
2018-06-05T11:12:38.110Z,50.00
2018-06-05T11:15:06.321Z,49.80
2018-06-05T11:17:34.553Z,49.60
2018-06-05T11:20:02.801Z,49.50
2018-06-05T11:22:31.131Z,49.60
2018-06-05T11:24:59.357Z,49.00
2018-06-05T11:27:27.680Z,48.40
2018-06-05T11:29:55.908Z,48.30
2018-06-05T11:32:24.226Z,48.00
2018-06-05T11:34:52.416Z,47.60
2018-06-05T11:37:20.637Z,47.90
2018-06-05T11:39:48.916Z,48.20
2018-06-05T11:42:17.124Z,47.90
2018-06-05T11:44:45.348Z,47.60
2018-06-05T11:47:13.616Z,48.10
2018-06-05T11:49:41.846Z,47.50
2018-06-05T11:52:10.085Z,47.80
2018-06-05T11:54:38.327Z,47.10
2018-06-05T11:57:06.521Z,46.40
2018-06-05T11:59:34.732Z,45.40
2018-06-05T12:02:02.953Z,44.80
2018-06-05T12:04:31.181Z,44.00
2018-06-05T12:06:59.382Z,43.40
2018-06-05T12:09:27.679Z,42.80
2018-06-05T12:11:55.940Z,42.50
2018-06-05T12:14:24.156Z,42.50
2018-06-05T12:16:52.408Z,42.60
2018-06-05T12:19:21.151Z,42.40
2018-06-05T12:21:49.694Z,41.90
2018-06-05T12:24:17.895Z,41.70
2018-06-05T12:26:46.256Z,42.30
2018-06-05T12:31:42.540Z,43.50
2018-06-05T12:34:10.751Z,43.70
2018-06-05T12:36:38.957Z,43.40
2018-06-05T12:39:08.253Z,43.30
2018-06-05T12:41:36.524Z,42.90
2018-06-05T12:44:04.859Z,43.00
2018-06-05T12:46:33.076Z,42.50
2018-06-05T12:51:29.294Z,40.70
2018-06-05T12:53:57.514Z,39.60
2018-06-05T12:56:25.742Z,39.60
2018-06-05T12:58:53.956Z,39.30
2018-06-05T13:01:22.209Z,39.30
2018-06-05T13:03:50.416Z,38.90
2018-06-05T13:06:18.613Z,39.30
2018-06-05T13:08:46.860Z,40.20
2018-06-05T13:11:15.034Z,39.30
2018-06-05T13:13:43.278Z,38.80
2018-06-05T13:16:11.504Z,38.90
2018-06-05T13:18:39.821Z,38.70
2018-06-05T13:21:08.032Z,38.90
2018-06-05T13:23:36.231Z,38.70
2018-06-05T13:26:04.493Z,38.70
2018-06-05T13:28:32.681Z,39.40
2018-06-05T13:31:00.900Z,40.40
2018-06-05T13:33:29.108Z,40.10
2018-06-05T13:35:57.340Z,41.00
2018-06-05T13:38:25.561Z,41.80
2018-06-05T13:40:53.789Z,40.90
2018-06-05T13:43:22.008Z,40.50
2018-06-05T13:45:50.443Z,40.10
2018-06-05T13:48:18.676Z,39.30
2018-06-05T13:50:46.904Z,38.60
2018-06-05T13:53:15.115Z,38.70
2018-06-05T13:58:11.351Z,36.90
2018-06-05T14:00:39.620Z,37.30
2018-06-05T14:03:07.861Z,37.70
2018-06-05T14:05:36.220Z,38.40
2018-06-05T14:08:04.692Z,38.50
2018-06-05T14:10:32.928Z,38.80
2018-06-05T14:13:01.191Z,38.60
2018-06-05T14:15:29.393Z,38.80
2018-06-05T14:17:57.631Z,39.90
2018-06-05T14:20:25.836Z,39.90
2018-06-05T14:22:54.076Z,39.80
2018-06-05T14:25:22.299Z,39.80
2018-06-05T14:27:50.529Z,39.90
2018-06-05T14:30:18.741Z,40.10
2018-06-05T14:32:46.964Z,39.50
2018-06-05T14:35:15.216Z,38.50
2018-06-05T14:37:43.441Z,37.90
2018-06-05T14:40:11.667Z,38.00
2018-06-05T14:42:39.872Z,38.50
2018-06-05T14:45:08.168Z,39.00
2018-06-05T14:47:36.298Z,39.00
2018-06-05T14:50:04.568Z,39.00
2018-06-05T14:52:32.872Z,38.90
2018-06-05T14:55:01.106Z,38.80
2018-06-05T14:57:29.327Z,37.70
2018-06-05T14:59:58.513Z,36.20
2018-06-05T15:04:54.708Z,33.80
2018-06-05T15:07:22.982Z,32.60
2018-06-05T15:09:51.189Z,31.60
2018-06-05T15:12:19.399Z,30.90
2018-06-05T15:14:47.703Z,30.80
2018-06-05T15:17:15.933Z,30.60
2018-06-05T15:19:44.164Z,30.70
2018-06-05T15:22:12.380Z,31.60
2018-06-05T15:24:40.624Z,32.30
2018-06-05T15:27:08.892Z,33.50
2018-06-05T15:29:37.201Z,33.90
2018-06-05T15:32:05.752Z,34.50
2018-06-05T15:34:33.963Z,34.60
2018-06-05T15:37:02.177Z,34.90
2018-06-05T15:39:30.467Z,35.50
2018-06-05T15:41:58.724Z,35.80
2018-06-05T15:44:26.952Z,36.20
2018-06-05T15:46:55.141Z,36.30
2018-06-05T15:49:23.368Z,36.60
2018-06-05T15:51:51.600Z,36.70
2018-06-05T15:54:20.521Z,37.20
2018-06-05T15:56:48.754Z,37.60
2018-06-05T15:59:16.960Z,37.90
2018-06-05T16:01:45.212Z,38.30
2018-06-05T16:04:13.449Z,38.90
2018-06-05T16:06:41.656Z,39.40
2018-06-05T16:09:09.919Z,39.70
2018-06-05T16:11:38.116Z,40.00
2018-06-05T16:14:06.354Z,40.50
2018-06-05T16:16:34.547Z,40.80
2018-06-05T16:19:02.853Z,41.20
2018-06-05T16:26:27.017Z,42.50
2018-06-05T16:28:55.236Z,42.80
2018-06-05T16:31:23.583Z,43.00
2018-06-05T16:33:51.790Z,43.20
2018-06-05T16:36:20.079Z,43.60
2018-06-05T16:38:48.316Z,43.90
2018-06-05T16:41:16.734Z,44.40
2018-06-05T16:43:44.996Z,45.00
2018-06-05T16:46:13.220Z,45.40
2018-06-05T16:48:41.428Z,46.30
2018-06-05T16:51:09.657Z,46.60
2018-06-05T16:56:05.879Z,47.40
2018-06-05T16:58:34.135Z,47.70
2018-06-05T17:01:02.374Z,47.70
2018-06-05T17:03:30.591Z,47.60
2018-06-05T17:05:58.824Z,47.50
2018-06-05T17:08:27.059Z,47.40
2018-06-05T17:10:55.285Z,47.30
2018-06-05T17:13:23.600Z,47.00
2018-06-05T17:15:51.832Z,47.00
2018-06-05T17:18:20.046Z,47.60
2018-06-05T17:20:48.270Z,47.30
2018-06-05T17:23:16.479Z,47.10
2018-06-05T17:25:44.753Z,46.50
2018-06-05T17:28:13.008Z,46.40
2018-06-05T17:30:41.237Z,46.10
2018-06-05T17:33:09.429Z,45.90
2018-06-05T17:35:37.684Z,45.60
2018-06-05T17:38:05.975Z,45.60
2018-06-05T17:40:34.465Z,45.30
2018-06-05T17:43:02.672Z,44.90
2018-06-05T17:45:30.978Z,44.40
2018-06-05T17:47:59.178Z,43.80
2018-06-05T17:50:27.388Z,43.30
2018-06-05T17:52:55.593Z,42.70
2018-06-05T17:55:23.890Z,42.10
2018-06-05T17:57:52.112Z,41.80
2018-06-05T18:00:20.324Z,41.40
2018-06-05T18:02:48.567Z,41.30
2018-06-05T18:05:24.732Z,41.40
2018-06-05T18:07:53.029Z,41.70
2018-06-05T18:10:21.240Z,42.40
2018-06-05T18:12:49.485Z,43.00
2018-06-05T18:15:17.704Z,43.80
2018-06-05T18:17:45.953Z,44.50
2018-06-05T18:20:14.168Z,45.10
2018-06-05T18:22:42.413Z,45.50
2018-06-05T18:25:10.640Z,45.80
2018-06-05T18:27:38.928Z,46.10
2018-06-05T18:30:07.145Z,46.30
2018-06-05T18:32:35.377Z,46.60
2018-06-05T18:35:03.608Z,47.10
2018-06-05T18:37:31.845Z,47.20
2018-06-05T18:40:00.189Z,47.60
2018-06-05T18:42:28.388Z,48.10
2018-06-05T18:44:56.589Z,48.70
2018-06-05T18:47:24.820Z,49.20
2018-06-05T18:49:53.028Z,49.60
2018-06-05T18:52:21.276Z,49.80
2018-06-05T18:54:49.471Z,50.30
2018-06-05T18:57:17.672Z,51.00
2018-06-05T18:59:45.912Z,51.30
2018-06-05T19:02:14.244Z,52.00
2018-06-05T19:04:42.612Z,52.70
2018-06-05T19:07:10.824Z,53.30
2018-06-05T19:09:39.036Z,54.10
2018-06-05T19:12:07.275Z,55.00
2018-06-05T19:14:35.535Z,55.80
2018-06-05T19:17:03.724Z,56.70
2018-06-05T19:19:32.131Z,57.60
2018-06-05T19:22:00.367Z,58.30
2018-06-05T19:24:28.632Z,59.00
2018-06-05T19:26:56.872Z,59.70
2018-06-05T19:29:25.112Z,60.70
2018-06-05T19:31:53.382Z,61.30
2018-06-05T19:34:21.581Z,62.40
2018-06-05T19:36:49.878Z,63.40
2018-06-05T19:39:18.108Z,64.40
2018-06-05T19:44:14.328Z,66.00
2018-06-05T19:46:42.581Z,66.50
2018-06-05T19:49:10.806Z,67.10
2018-06-05T19:51:39.009Z,67.50
2018-06-05T19:54:07.273Z,68.10
2018-06-05T19:56:35.485Z,68.50
2018-06-05T19:59:03.767Z,68.80
2018-06-05T20:01:31.992Z,69.40
2018-06-05T20:04:00.363Z,69.60
2018-06-05T20:06:28.592Z,70.00
2018-06-05T20:08:56.849Z,70.50
2018-06-05T20:11:25.088Z,71.00
2018-06-05T20:13:53.325Z,71.10
2018-06-05T20:16:21.574Z,71.30
2018-06-05T20:18:49.835Z,71.50
2018-06-05T20:21:18.059Z,72.10
2018-06-05T20:23:46.579Z,72.50
2018-06-05T20:26:14.825Z,72.80
2018-06-05T20:28:43.130Z,73.10
2018-06-05T20:31:11.324Z,73.40
2018-06-05T20:33:39.542Z,73.70
2018-06-05T20:36:07.752Z,73.80
2018-06-05T20:38:35.984Z,74.90
2018-06-05T20:41:04.238Z,74.20
2018-06-05T20:43:32.456Z,74.50
2018-06-05T20:46:00.666Z,74.80
2018-06-05T20:48:28.921Z,74.90
2018-06-05T20:50:58.362Z,75.30
2018-06-05T20:53:26.589Z,75.40
2018-06-05T20:55:54.852Z,75.70
2018-06-05T20:58:23.220Z,76.20
2018-06-05T21:00:51.473Z,76.40
2018-06-05T21:03:19.710Z,76.70
2018-06-05T21:05:47.903Z,77.60
2018-06-05T21:08:16.166Z,77.80
2018-06-05T21:10:44.469Z,77.20
2018-06-05T21:13:12.678Z,77.50
2018-06-05T21:15:40.883Z,77.90
2018-06-05T21:18:09.111Z,78.20
2018-06-05T21:20:37.323Z,78.30
2018-06-05T21:23:05.843Z,78.50
2018-06-05T21:25:34.048Z,78.90
2018-06-05T21:28:02.232Z,78.90
2018-06-05T21:30:30.528Z,79.20
2018-06-05T21:32:58.802Z,79.30
2018-06-05T21:35:27.044Z,79.80
2018-06-05T21:37:55.255Z,80.00
2018-06-05T21:40:23.473Z,80.30
2018-06-05T21:42:51.709Z,80.80
2018-06-05T21:45:19.959Z,81.00
2018-06-05T21:47:48.225Z,81.10
2018-06-05T21:50:16.472Z,81.20
2018-06-05T21:52:44.672Z,81.20
2018-06-05T21:55:12.911Z,81.50
2018-06-05T21:57:41.259Z,81.80
2018-06-05T22:00:09.526Z,82.00
2018-06-05T22:02:37.861Z,82.40
2018-06-05T22:05:06.076Z,82.90
2018-06-05T22:07:34.337Z,83.10
2018-06-05T22:10:02.556Z,83.20
2018-06-05T22:12:30.778Z,83.60
2018-06-05T22:14:58.989Z,83.80
2018-06-05T22:17:27.236Z,83.90
2018-06-05T22:19:55.439Z,84.00
2018-06-05T22:22:23.685Z,84.10
2018-06-05T22:24:51.917Z,84.00
2018-06-05T22:27:20.137Z,84.00
2018-06-05T22:29:48.336Z,84.10
2018-06-05T22:32:16.605Z,84.40
2018-06-05T22:34:44.845Z,84.80
2018-06-05T22:37:13.048Z,85.20
2018-06-05T22:39:41.288Z,85.40
2018-06-05T22:42:09.496Z,86.40
2018-06-05T22:44:37.738Z,85.80
2018-06-05T22:47:05.952Z,85.90
2018-06-05T22:49:34.173Z,86.00
2018-06-05T22:52:02.508Z,86.30
2018-06-05T22:54:30.696Z,86.60
2018-06-05T22:56:58.933Z,87.00
2018-06-05T22:59:27.164Z,87.30
2018-06-05T23:01:55.361Z,87.50
2018-06-05T23:04:23.576Z,87.70
2018-06-05T23:06:51.783Z,87.90
2018-06-05T23:09:20.029Z,88.20
2018-06-05T23:11:48.256Z,88.50
2018-06-05T23:14:16.468Z,88.70
2018-06-05T23:16:44.701Z,88.90
2018-06-05T23:19:12.904Z,89.20
2018-06-05T23:21:41.152Z,90.10
2018-06-05T23:24:09.376Z,89.50
2018-06-05T23:26:37.567Z,89.70
2018-06-05T23:29:05.805Z,89.60
2018-06-05T23:31:34.023Z,89.80
2018-06-05T23:34:02.249Z,90.00
2018-06-05T23:36:30.449Z,90.10
2018-06-05T23:38:58.683Z,90.10
2018-06-05T23:41:26.954Z,90.30
2018-06-05T23:43:55.180Z,90.30
2018-06-05T23:46:23.380Z,90.40
2018-06-05T23:48:51.715Z,90.50
2018-06-05T23:51:19.905Z,90.50
2018-06-05T23:53:48.152Z,90.50
2018-06-05T23:56:16.382Z,90.60
2018-06-05T23:58:44.588Z,90.60
